page 5179 of 1016678 registered users

eBook PostsUsers

  1. 0cat6lyric registered @ 2012-12-31 04:09:07, last login @ 2012-12-31 04:09:07
  2. 0punchgarden1 registered @ 2012-12-31 04:09:31, last login @ 2012-12-31 04:09:31
  3. 0bathisrael90 registered @ 2012-12-31 04:15:31, last login @ 2012-12-31 04:54:19
  4. 0menufuel1 registered @ 2012-12-31 04:15:54, last login @ 2012-12-31 04:15:54
  5. 0michaelkorslls registered @ 2012-12-31 04:16:59, last login @ 2012-12-31 04:16:59
  6. 0tea0fir registered @ 2012-12-31 04:17:09, last login @ 2012-12-31 04:17:09
  7. 0tub29bun registered @ 2012-12-31 04:17:23, last login @ 2012-12-31 04:17:23
  8. 0coldwhale7 registered @ 2012-12-31 04:23:05, last login @ 2012-12-31 04:23:05
  9. 0rain75cause registered @ 2012-12-31 04:24:57, last login @ 2012-12-31 04:24:57
  10. 0oniontulip77 registered @ 2012-12-31 04:28:40, last login @ 2012-12-31 04:28:40
  11. 0flood98bench registered @ 2012-12-31 04:31:02, last login @ 2012-12-31 04:31:02
  12. 0whale1crime registered @ 2012-12-31 04:31:54, last login @ 2012-12-31 04:31:54
  13. 0spring2sailor registered @ 2012-12-31 04:33:04, last login @ 2012-12-31 04:33:04
  14. 0offer12quilt registered @ 2012-12-31 04:33:41, last login @ 2012-12-31 04:33:41
  15. 0cattlewrist8 registered @ 2012-12-31 04:34:04, last login @ 2012-12-31 04:34:04
  16. 0crime4way registered @ 2012-12-31 04:34:30, last login @ 2012-12-31 04:59:52
  17. 0closetunit0 registered @ 2012-12-31 04:35:24, last login @ 2012-12-31 04:35:24
  18. 0syrupbeauty16 registered @ 2012-12-31 04:37:41, last login @ 2012-12-31 04:37:41
  19. 0poet7mouth registered @ 2012-12-31 04:43:26, last login @ 2012-12-31 04:43:26
  20. 0mintchime78 registered @ 2012-12-31 04:44:45, last login @ 2012-12-31 04:44:45
  21. 0fire4chalk registered @ 2012-12-31 04:52:33, last login @ 2012-12-31 04:52:33
  22. 0farmcub4 registered @ 2012-12-31 04:52:40, last login @ 2012-12-31 04:52:40
  23. 0filetower5 registered @ 2012-12-31 04:53:33, last login @ 2012-12-31 04:53:33
  24. 0locket76crayon registered @ 2012-12-31 04:57:47, last login @ 2012-12-31 04:57:47
  25. 0spheredill3 registered @ 2012-12-31 05:01:00, last login @ 2012-12-31 05:01:00
  26. 0carolcolony8 registered @ 2012-12-31 05:02:26, last login @ 2012-12-31 05:02:26
  27. 0judo6kiss registered @ 2012-12-31 05:04:44, last login @ 2012-12-31 05:04:44
  28. 0monthflute94 registered @ 2012-12-31 05:04:47, last login @ 2012-12-31 05:57:09
  29. 0snailpeony17 registered @ 2012-12-31 05:10:21, last login @ 2012-12-31 05:10:21
  30. 0doubt0sled registered @ 2012-12-31 05:10:53, last login @ 2012-12-31 05:39:44
  31. 0iris59spy registered @ 2012-12-31 05:12:18, last login @ 2012-12-31 05:12:18
  32. 0thomaspig2 registered @ 2012-12-31 05:13:11, last login @ 2012-12-31 05:13:11
  33. 0floorsinger1 registered @ 2012-12-31 05:14:25, last login @ 2012-12-31 05:14:25
  34. 0sunpastry6 registered @ 2012-12-31 05:17:29, last login @ 2012-12-31 05:17:29
  35. 0traybone67 registered @ 2012-12-31 05:20:29, last login @ 2012-12-31 05:20:29
  36. 0inch5fan registered @ 2012-12-31 05:24:32, last login @ 2012-12-31 05:24:32
  37. 0donna5look registered @ 2012-12-31 05:24:32, last login @ 2012-12-31 05:24:32
  38. 0food7organ registered @ 2012-12-31 05:25:48, last login @ 2012-12-31 05:25:48
  39. 0bonsai27angora registered @ 2012-12-31 05:27:30, last login @ 2012-12-31 05:27:30
  40. 0client0spain registered @ 2012-12-31 05:30:21, last login @ 2012-12-31 05:30:21
  41. 0bag82yak registered @ 2012-12-31 05:30:55, last login @ 2012-12-31 05:30:55
  42. 0galley75temple registered @ 2012-12-31 05:34:44, last login @ 2012-12-31 05:34:44
  43. 0doorchef6 registered @ 2012-12-31 05:35:26, last login @ 2012-12-31 05:35:26
  44. 0sunocelot8 registered @ 2012-12-31 05:36:37, last login @ 2012-12-31 05:36:37
  45. 0edwardmap98 registered @ 2012-12-31 05:37:02, last login @ 2012-12-31 05:37:02
  46. 0quiver1knot registered @ 2012-12-31 05:40:40, last login @ 2012-12-31 05:40:40
  47. 0shippie68 registered @ 2012-12-31 05:44:24, last login @ 2012-12-31 05:44:24
  48. 0wollmond registered @ 2012-12-31 05:48:56, last login @ 2012-12-31 05:49:50
  49. 0face9decade registered @ 2012-12-31 05:51:05, last login @ 2012-12-31 05:51:05
  50. 0tub34woolen registered @ 2012-12-31 05:51:23, last login @ 2012-12-31 05:51:23
  51. 0snowpan14 registered @ 2012-12-31 05:53:38, last login @ 2012-12-31 05:53:38
  52. 0curve3willow registered @ 2012-12-31 05:54:57, last login @ 2012-12-31 05:54:57
  53. 0use3coat registered @ 2012-12-31 05:56:10, last login @ 2012-12-31 05:56:10
  54. 0sweetshubcap1 registered @ 2012-12-31 05:56:39, last login @ 2012-12-31 05:56:39
  55. 0find02rate registered @ 2012-12-31 05:56:40, last login @ 2012-12-31 05:56:40
  56. 0flamesusan8 registered @ 2012-12-31 05:58:52, last login @ 2012-12-31 05:58:52
  57. 0flute14dew registered @ 2012-12-31 06:00:35, last login @ 2012-12-31 06:00:35
  58. 0agespy5 registered @ 2012-12-31 06:01:53, last login @ 2012-12-31 06:01:53
  59. 0jeans15attic registered @ 2012-12-31 06:01:53, last login @ 2012-12-31 06:01:53
  60. 0temperquiet94 registered @ 2012-12-31 06:03:28, last login @ 2012-12-31 06:03:28
  61. 0Duchesst registered @ 2012-12-31 06:07:13, last login @ 2012-12-31 06:07:13
  62. 0crab08shrine registered @ 2012-12-31 06:10:44, last login @ 2012-12-31 06:10:44
  63. 0tip83glass registered @ 2012-12-31 06:13:03, last login @ 2012-12-31 06:13:03
  64. 0pikebeef9 registered @ 2012-12-31 06:13:17, last login @ 2012-12-31 06:13:17
  65. 0deletenight2 registered @ 2012-12-31 06:13:21, last login @ 2012-12-31 06:13:21
  66. 0plierbike10 registered @ 2012-12-31 06:13:56, last login @ 2012-12-31 06:13:56
  67. 0liverinch84 registered @ 2012-12-31 06:14:08, last login @ 2012-12-31 06:14:08
  68. 0drumpet7 registered @ 2012-12-31 06:15:27, last login @ 2012-12-31 06:15:27
  69. 0second43skate registered @ 2012-12-31 06:16:27, last login @ 2012-12-31 06:16:27
  70. 0den93owl registered @ 2012-12-31 06:18:57, last login @ 2012-12-31 06:18:57
  71. 0rosedaisy2 registered @ 2012-12-31 06:20:06, last login @ 2012-12-31 06:20:06
  72. 0olivebengal72 registered @ 2012-12-31 06:20:23, last login @ 2012-12-31 06:20:23
  73. 0canvasflock22 registered @ 2012-12-31 06:20:50, last login @ 2012-12-31 06:20:50
  74. 0butanebubble57 registered @ 2012-12-31 06:22:42, last login @ 2012-12-31 06:22:42
  75. 0bird3muscle registered @ 2012-12-31 06:24:34, last login @ 2012-12-31 06:24:34
  76. 0run4pig registered @ 2012-12-31 06:26:51, last login @ 2012-12-31 06:26:51
  77. 0george29syrup registered @ 2012-12-31 06:27:15, last login @ 2012-12-31 06:27:15
  78. 0quiet3lyric registered @ 2012-12-31 06:27:25, last login @ 2012-12-31 06:27:25
  79. 0buffet6desire registered @ 2012-12-31 06:27:28, last login @ 2012-12-31 06:27:28
  80. 0egg42fuel registered @ 2012-12-31 06:31:24, last login @ 2012-12-31 06:31:24
  81. 0cat9stock registered @ 2012-12-31 06:33:06, last login @ 2012-12-31 06:33:06
  82. 0beadfriend61 registered @ 2012-12-31 06:41:31, last login @ 2012-12-31 06:41:31
  83. 0malc510 registered @ 2012-12-31 06:41:58, last login @ 2012-12-31 06:46:47
  84. 0bar77work registered @ 2012-12-31 06:42:19, last login @ 2012-12-31 06:42:19
  85. 0africatempo79 registered @ 2012-12-31 06:44:17, last login @ 2012-12-31 06:44:17
  86. 0shop9nurse registered @ 2012-12-31 06:47:45, last login @ 2012-12-31 06:47:45
  87. 0date62mouse registered @ 2012-12-31 06:47:54, last login @ 2012-12-31 06:47:54
  88. 0braappeal15 registered @ 2012-12-31 06:49:37, last login @ 2012-12-31 06:49:37
  89. 0authorpart16 registered @ 2012-12-31 06:49:41, last login @ 2012-12-31 06:49:41
  90. 0fowldryer6 registered @ 2012-12-31 06:52:03, last login @ 2012-12-31 06:52:03
  91. 0randyjackson registered @ 2012-12-31 06:52:05, last login @ 2012-12-31 06:52:05
  92. 0hockey12japan registered @ 2012-12-31 06:52:16, last login @ 2012-12-31 06:52:16
  93. 0whalegiant0 registered @ 2012-12-31 06:53:20, last login @ 2012-12-31 06:53:20
  94. 0mahelis_xo registered @ 2012-12-31 06:53:31, last login @ 2012-12-31 06:53:31
  95. 0lycrahat27 registered @ 2012-12-31 06:53:31, last login @ 2012-12-31 06:53:31
  96. 0menghana9 registered @ 2012-12-31 06:54:27, last login @ 2012-12-31 06:54:27
  97. 0wingbow5 registered @ 2012-12-31 06:54:54, last login @ 2012-12-31 06:54:54
  98. 0fieldmarket7 registered @ 2012-12-31 06:57:17, last login @ 2012-12-31 06:57:17
  99. 0enemyground6 registered @ 2012-12-31 06:57:50, last login @ 2012-12-31 06:57:50
  100. 0screen34slime registered @ 2012-12-31 06:58:39, last login @ 2012-12-31 06:58:39
  101. 0quiet3nurse registered @ 2012-12-31 06:59:38, last login @ 2012-12-31 06:59:38

More...

[5189] [5188] [5187] [5186] [5185] [5184] [5183] [5182] [5181] [5180] [5179] [5178] [5177] [5176] [5175] [5174] [5173] [5172] [5171] [5170] ...[1]
Back to Top